Time;durP1;ratioP1;P1;durP2;ratioP2;P2;SDS_P1;SDS_P2;PMS_P1;PMS_P2;Temp;Humidity;BMP_temperature;BMP_pressure;BME280_temperature;BME280_humidity;BME280_pressure;Samples;Min_cycle;Max_cycle;Signal;HPM_P1;HPM_P2
2022/10/05 00:03:10;;;;;;;5.40;5.00;;;;;;;20.96;39.87;95954.81;6170047;28;103976;-64
2022/10/05 00:06:13;;;;;;;5.60;5.00;;;;;;;20.90;39.97;95946.88;6174473;28;103146;-61
2022/10/05 00:09:19;;;;;;;5.57;5.07;;;;;;;20.93;39.77;95934.88;6158405;28;104259;-62
2022/10/05 00:12:25;;;;;;;4.43;4.13;;;;;;;20.87;40.18;95946.63;6183256;28;104297;-60
2022/10/05 00:15:29;;;;;;;4.57;4.27;;;;;;;20.88;40.41;95942.91;6172517;28;103134;-62
2022/10/05 00:18:32;;;;;;;4.53;4.13;;;;;;;20.85;40.06;95944.25;6172713;28;102892;-65
2022/10/05 00:21:36;;;;;;;5.50;5.00;;;;;;;20.87;40.03;95941.31;6166340;28;103087;-60
2022/10/05 00:24:39;;;;;;;5.00;4.40;;;;;;;20.90;40.14;95946.88;6173806;28;103519;-63
2022/10/05 00:27:46;;;;;;;5.10;4.70;;;;;;;20.88;40.23;95943.69;6179008;28;104155;-60
2022/10/05 00:30:49;;;;;;;4.47;4.07;;;;;;;20.89;40.32;95942.63;6159212;28;103077;-61
2022/10/05 00:33:53;;;;;;;4.37;4.00;;;;;;;20.88;40.00;95951.66;6168627;28;103036;-62
2022/10/05 00:36:56;;;;;;;4.63;4.20;;;;;;;20.88;40.26;95941.03;6168989;28;103471;-61
2022/10/05 00:39:59;;;;;;;4.27;3.97;;;;;;;20.87;39.78;95946.63;6175882;28;103392;-62
2022/10/05 00:43:24;;;;;;;4.33;4.03;;;;;;;20.85;40.16;95944.25;6164872;28;104514;-61
2022/10/05 00:46:38;;;;;;;4.30;3.93;;;;;;;20.81;40.07;95943.19;6163435;28;103173;-61
2022/10/05 00:50:09;;;;;;;4.30;4.00;;;;;;;20.82;40.07;95941.31;6166564;28;104016;-62
2022/10/05 00:53:24;;;;;;;4.20;3.87;;;;;;;20.83;39.98;95941.03;6173005;28;103020;-63
2022/10/05 00:56:51;;;;;;;4.00;3.70;;;;;;;20.83;40.07;95941.03;6168286;28;102904;-62
2022/10/05 01:00:05;;;;;;;4.27;3.90;;;;;;;20.84;39.74;95942.66;6160868;28;103068;-62
2022/10/05 01:03:16;;;;;;;4.17;3.87;;;;;;;20.82;39.82;95949.28;6161475;28;103336;-62
2022/10/05 01:06:29;;;;;;;4.90;3.97;;;;;;;20.80;39.74;95949.56;6152587;28;104521;-62
2022/10/05 01:09:41;;;;;;;4.00;3.70;;;;;;;20.77;39.97;95958.09;6165490;28;103083;-62
2022/10/05 01:12:51;;;;;;;4.30;4.00;;;;;;;20.74;40.15;95969.31;6184572;28;103973;-62
2022/10/05 01:16:04;;;;;;;4.23;3.83;;;;;;;20.78;39.86;95962.34;6178551;28;103412;-61
2022/10/05 01:19:18;;;;;;;3.70;3.40;;;;;;;20.76;40.04;95963.69;6176815;28;104039;-61
2022/10/05 01:22:36;;;;;;;3.67;3.37;;;;;;;20.75;39.83;95965.56;6160886;28;103010;-63
2022/10/05 01:25:50;;;;;;;3.40;3.20;;;;;;;20.76;39.87;95969.03;6166174;28;102953;-67
2022/10/05 01:29:01;;;;;;;3.97;3.67;;;;;;;20.72;39.95;95968.78;6172247;28;103719;-67
2022/10/05 01:32:13;;;;;;;3.50;3.20;;;;;;;20.76;39.67;95975.13;6165191;28;103441;-68
2022/10/05 01:35:29;;;;;;;3.40;3.13;;;;;;;20.76;39.70;95977.00;6166381;28;103277;-67
2022/10/05 01:38:43;;;;;;;3.63;3.33;;;;;;;20.77;39.71;95987.38;6159986;28;104092;-67
2022/10/05 01:42:00;;;;;;;4.30;3.67;;;;;;;20.75;39.56;95986.84;6172650;28;103191;-66
2022/10/05 01:45:11;;;;;;;3.80;3.37;;;;;;;20.75;39.69;95994.03;6168365;28;104207;-67
2022/10/05 01:48:22;;;;;;;3.20;2.90;;;;;;;20.74;39.68;95998.56;6160281;28;103199;-67
2022/10/05 01:51:36;;;;;;;3.40;3.20;;;;;;;20.72;39.66;96008.69;6153434;28;104203;-67
2022/10/05 01:54:50;;;;;;;3.70;3.20;;;;;;;20.73;39.75;96014.78;6160890;28;102972;-67
2022/10/05 01:58:06;;;;;;;3.27;3.03;;;;;;;20.73;39.59;96015.59;6161084;28;103197;-67
2022/10/05 02:01:18;;;;;;;2.80;2.60;;;;;;;20.72;39.64;96016.66;6171942;28;104009;-67
2022/10/05 02:04:32;;;;;;;3.03;2.73;;;;;;;20.69;39.81;96019.88;6151462;28;104100;-67
2022/10/05 02:08:00;;;;;;;2.80;2.60;;;;;;;20.69;39.74;96013.75;6160330;28;103241;-67
2022/10/05 02:11:07;;;;;;;3.67;3.00;;;;;;;20.68;40.04;96022.81;6179950;28;103715;-67
2022/10/05 02:14:12;;;;;;;3.80;2.93;;;;;;;20.70;39.70;96021.47;6178236;28;103345;-67
2022/10/05 02:17:20;;;;;;;3.50;3.20;;;;;;;20.69;39.70;96025.19;6186882;28;103077;-67
2022/10/05 02:20:29;;;;;;;3.57;3.27;;;;;;;20.69;39.74;96024.38;6177127;28;103177;-67
2022/10/05 02:23:36;;;;;;;3.17;2.97;;;;;;;20.69;39.61;96017.22;6167661;28;103182;-67
2022/10/05 02:26:41;;;;;;;3.13;2.90;;;;;;;20.68;39.62;96020.13;6171745;28;104476;-67
2022/10/05 02:29:48;;;;;;;3.40;3.10;;;;;;;20.67;39.55;96027.31;6175660;28;105209;-68
2022/10/05 02:32:58;;;;;;;3.50;3.00;;;;;;;20.67;39.35;96021.19;6162376;28;104217;-67
2022/10/05 02:36:02;;;;;;;3.00;2.80;;;;;;;20.67;39.47;96029.97;6164496;28;104063;-67
2022/10/05 02:39:14;;;;;;;2.63;2.43;;;;;;;20.68;39.50;96020.13;6168455;28;103183;-67
2022/10/05 02:42:27;;;;;;;2.80;2.60;;;;;;;20.68;39.82;96026.25;6163352;28;102936;-67
2022/10/05 02:45:41;;;;;;;3.53;2.97;;;;;;;20.72;39.71;96027.28;6183835;28;103356;-70
2022/10/05 02:48:55;;;;;;;3.33;2.70;;;;;;;20.71;39.73;96036.34;6177720;28;106434;-71
2022/10/05 02:52:07;;;;;;;3.27;2.80;;;;;;;20.74;39.82;96032.34;6164085;28;103213;-71
2022/10/05 02:55:18;;;;;;;2.63;2.43;;;;;;;20.74;40.02;96025.16;6172721;28;103095;-71
2022/10/05 02:58:24;;;;;;;2.30;2.17;;;;;;;20.73;40.09;96020.91;6187256;28;103086;-71
2022/10/05 03:01:32;;;;;;;3.13;2.90;;;;;;;20.74;40.41;96025.16;6156288;28;103407;-71
2022/10/05 03:04:42;;;;;;;3.73;3.53;;;;;;;20.75;39.97;96017.97;6174401;28;104307;-71
2022/10/05 03:07:52;;;;;;;7.90;7.10;;;;;;;20.86;40.34;96020.31;6169926;28;103284;-72
2022/10/05 03:11:05;;;;;;;9.93;9.03;;;;;;;20.97;40.33;96033.56;6173889;28;103162;-71
2022/10/05 03:14:17;;;;;;;10.60;9.13;;;;;;;20.98;40.89;96038.59;6180495;28;103387;-70
2022/10/05 03:17:22;;;;;;;8.90;8.10;;;;;;;20.96;41.06;96037.28;6173570;28;102946;-71
2022/10/05 03:20:39;;;;;;;7.93;7.43;;;;;;;21.00;41.58;96035.66;6162892;28;103131;-73
2022/10/05 03:23:59;;;;;;;9.00;8.20;;;;;;;20.98;40.84;96037.81;6174900;28;103151;-71
2022/10/05 03:27:09;;;;;;;7.80;7.13;;;;;;;20.91;41.59;96028.28;6180996;28;103178;-70
2022/10/05 03:30:16;;;;;;;7.00;6.43;;;;;;;21.00;40.71;96038.31;6175299;28;103411;-69
2022/10/05 03:33:27;;;;;;;5.07;3.60;;;;;;;20.86;39.83;96046.13;6175994;28;103051;-70
2022/10/05 03:36:42;;;;;;;6.13;3.87;;;;;;;20.79;38.63;96045.59;6158043;28;103656;-70
2022/10/05 03:39:51;;;;;;;7.77;3.83;;;;;;;20.78;39.10;96060.78;6173644;28;103139;-72
2022/10/05 03:43:11;;;;;;;5.27;4.10;;;;;;;20.81;39.09;96065.53;6187298;28;103515;-70
2022/10/05 03:46:24;;;;;;;7.07;5.07;;;;;;;20.78;39.46;96066.09;6152104;28;102978;-71
2022/10/05 03:49:40;;;;;;;6.30;4.00;;;;;;;20.74;39.75;96073.03;6162594;28;103655;-72
2022/10/05 03:52:48;;;;;;;6.60;3.97;;;;;;;20.73;39.89;96073.31;6163190;28;103213;-72
2022/10/05 03:55:58;;;;;;;5.10;4.40;;;;;;;20.69;40.08;96078.38;6161983;28;104222;-69
2022/10/05 03:59:09;;;;;;;4.40;3.87;;;;;;;20.72;39.91;96087.69;6173719;28;103189;-72
2022/10/05 04:02:19;;;;;;;4.03;3.63;;;;;;;20.69;39.74;96099.66;6185507;28;104191;-70
2022/10/05 04:05:27;;;;;;;5.97;4.33;;;;;;;20.69;39.84;96099.66;6185816;28;103158;-71
2022/10/05 04:08:39;;;;;;;4.23;3.83;;;;;;;20.67;39.88;96104.44;6179890;28;103589;-71
2022/10/05 04:11:55;;;;;;;4.63;3.97;;;;;;;20.66;39.84;96105.50;6184986;28;102959;-72
2022/10/05 04:15:03;;;;;;;3.90;3.60;;;;;;;20.66;39.65;96096.72;6187289;28;103158;-71
2022/10/05 04:18:14;;;;;;;4.00;3.70;;;;;;;20.65;39.66;96103.91;6186866;28;103191;-72
2022/10/05 04:21:22;;;;;;;3.63;2.97;;;;;;;20.67;39.64;96101.78;6177328;28;104262;-71
2022/10/05 04:24:35;;;;;;;4.43;3.63;;;;;;;20.68;39.42;96102.59;6186706;28;103472;-71
2022/10/05 04:27:41;;;;;;;3.67;3.37;;;;;;;20.69;39.56;96101.53;6187070;28;103072;-71
2022/10/05 04:30:48;;;;;;;3.70;3.40;;;;;;;20.68;39.55;96111.38;6185183;28;103249;-71
2022/10/05 04:33:59;;;;;;;6.57;3.20;;;;;;;20.66;39.55;96100.16;6180502;28;104101;-72
2022/10/05 04:37:07;;;;;;;5.73;3.53;;;;;;;20.66;39.64;96108.16;6186524;28;102843;-71
2022/10/05 04:40:26;;;;;;;3.30;3.00;;;;;;;20.66;39.31;96107.34;6186446;28;103043;-71
2022/10/05 04:43:44;;;;;;;3.93;2.97;;;;;;;20.61;39.33;96110.81;6175939;28;105591;-71
2022/10/05 04:47:04;;;;;;;4.73;3.43;;;;;;;20.63;39.22;96116.66;6186382;28;103332;-72
2022/10/05 04:50:17;;;;;;;2.83;2.63;;;;;;;20.61;39.38;96124.94;6186437;28;102955;-72
2022/10/05 04:53:30;;;;;;;3.13;2.93;;;;;;;20.59;39.42;96126.25;6186422;28;104167;-72
2022/10/05 04:56:38;;;;;;;3.13;2.87;;;;;;;20.61;39.58;96127.59;6179659;28;103532;-70
2022/10/05 05:00:00;;;;;;;4.83;3.30;;;;;;;20.59;39.36;96135.03;6185805;28;103043;-71
2022/10/05 05:03:29;;;;;;;3.73;3.37;;;;;;;20.59;39.24;96131.59;6186161;28;104067;-71
2022/10/05 05:06:38;;;;;;;3.37;3.07;;;;;;;20.62;39.22;96131.03;6165736;28;103098;-71
2022/10/05 05:10:17;;;;;;;3.57;3.00;;;;;;;20.60;39.46;96127.84;6186738;28;103415;-71
2022/10/05 05:13:42;;;;;;;3.70;3.43;;;;;;;20.62;39.48;96129.16;6151780;28;103182;-71
2022/10/05 05:16:48;;;;;;;3.60;3.30;;;;;;;20.60;39.49;96133.16;6180868;28;103094;-71
2022/10/05 05:20:00;;;;;;;2.60;2.37;;;;;;;20.59;39.53;96135.03;6182590;28;103062;-72
2022/10/05 05:23:12;;;;;;;3.10;2.87;;;;;;;20.63;39.30;96145.94;6185645;28;103082;-72
2022/10/05 05:26:27;;;;;;;3.80;2.87;;;;;;;20.61;39.40;96137.41;6186377;28;103447;-72
2022/10/05 05:29:43;;;;;;;3.70;2.87;;;;;;;20.66;39.48;96140.06;6175658;28;103071;-72
2022/10/05 05:32:58;;;;;;;3.20;3.00;;;;;;;20.66;39.47;96145.38;6185129;28;102998;-72
2022/10/05 05:36:32;;;;;;;3.33;3.03;;;;;;;20.64;39.19;96150.19;6185310;28;103073;-72
2022/10/05 05:39:45;;;;;;;3.40;3.10;;;;;;;20.63;39.35;96149.38;6178236;28;103122;-69
2022/10/05 05:42:57;;;;;;;5.30;3.10;;;;;;;20.66;39.20;96150.69;6184739;28;104317;-72
2022/10/05 05:46:07;;;;;;;3.50;3.20;;;;;;;20.65;39.30;96143.00;6184468;28;103055;-72
2022/10/05 05:49:16;;;;;;;3.40;2.90;;;;;;;20.66;39.45;96145.38;6185109;28;103069;-72
2022/10/05 05:52:24;;;;;;;4.60;2.87;;;;;;;20.67;39.26;96152.31;6174134;28;104394;-72
2022/10/05 05:55:33;;;;;;;3.97;3.10;;;;;;;20.68;39.11;96161.91;6185455;28;103178;-71
2022/10/05 05:58:43;;;;;;;3.60;3.40;;;;;;;20.71;39.36;96166.66;6185105;28;103065;-72
2022/10/05 06:01:53;;;;;;;3.63;3.30;;;;;;;20.68;39.10;96161.91;6180728;28;103241;-69
2022/10/05 06:05:03;;;;;;;3.47;3.17;;;;;;;20.71;38.89;96164.00;6179625;28;103705;-71
2022/10/05 06:08:13;;;;;;;4.10;3.30;;;;;;;20.76;39.24;96171.19;6185561;28;103112;-71
2022/10/05 06:11:21;;;;;;;3.70;3.40;;;;;;;20.75;38.96;96166.94;6185681;28;103206;-72
2022/10/05 06:14:29;;;;;;;4.30;3.90;;;;;;;20.77;39.02;96168.25;6174855;28;102974;-71
2022/10/05 06:17:39;;;;;;;4.30;3.73;;;;;;;20.85;38.63;96177.56;6184943;28;103230;-71
2022/10/05 06:20:49;;;;;;;3.60;3.30;;;;;;;20.94;39.13;96181.25;6184101;28;103321;-72
2022/10/05 06:23:59;;;;;;;3.77;2.90;;;;;;;21.08;38.93;96186.84;6184161;28;103140;-72
2022/10/05 06:27:24;;;;;;;3.70;3.40;;;;;;;21.18;38.34;96192.94;6174934;28;105140;-72
2022/10/05 06:30:37;;;;;;;4.43;3.60;;;;;;;21.29;37.98;96199.00;6184026;28;103323;-72
2022/10/05 06:33:47;;;;;;;4.10;3.70;;;;;;;21.39;38.18;96193.66;6183900;28;103274;-72
2022/10/05 06:36:56;;;;;;;3.77;3.47;;;;;;;21.49;37.74;96200.78;6172267;28;103209;-71
2022/10/05 06:40:11;;;;;;;3.73;3.17;;;;;;;21.58;38.15;96206.34;6184183;28;103135;-71
2022/10/05 06:43:42;;;;;;;5.27;3.70;;;;;;;21.65;37.72;96212.16;6184370;28;104201;-72
2022/10/05 06:46:55;;;;;;;3.87;3.57;;;;;;;21.73;37.50;96216.94;6183793;28;103113;-72
2022/10/05 06:50:12;;;;;;;4.57;4.17;;;;;;;21.80;37.51;96217.41;6173380;28;103833;-71
2022/10/05 06:53:31;;;;;;;6.50;4.37;;;;;;;21.85;37.96;96228.09;6183346;28;106053;-72
2022/10/05 06:56:45;;;;;;;5.33;4.83;;;;;;;21.89;37.88;96234.47;6185569;28;103200;-70
2022/10/05 06:59:57;;;;;;;5.10;4.77;;;;;;;21.95;37.46;96240.56;6177752;28;103495;-72
2022/10/05 07:03:09;;;;;;;5.47;4.97;;;;;;;22.00;37.43;96233.31;6188396;28;102850;-72
2022/10/05 07:06:16;;;;;;;5.90;5.20;;;;;;;22.07;37.18;96233.81;6187766;28;103195;-71
2022/10/05 07:09:29;;;;;;;7.00;5.70;;;;;;;22.10;37.79;96221.81;6188360;28;103216;-72
2022/10/05 07:12:58;;;;;;;6.70;5.40;;;;;;;22.14;37.55;96214.03;6177163;28;103102;-72
2022/10/05 07:16:11;;;;;;;6.47;5.80;;;;;;;22.17;37.73;96218.81;6188401;28;103213;-70
2022/10/05 07:19:29;;;;;;;6.80;5.97;;;;;;;22.21;37.54;96227.88;6187452;28;103206;-73
2022/10/05 07:22:47;;;;;;;8.43;6.40;;;;;;;22.25;37.36;96226.25;6176720;28;103173;-70
2022/10/05 07:26:00;;;;;;;6.87;6.27;;;;;;;22.26;37.62;96222.50;6187686;28;103137;-72
2022/10/05 07:29:22;;;;;;;8.70;6.60;;;;;;;22.31;37.05;96219.78;6186932;28;103222;-71
2022/10/05 07:32:34;;;;;;;7.13;6.53;;;;;;;22.33;37.57;96218.44;6186356;28;103799;-70
2022/10/05 07:39:18;;;;;;;6.97;6.37;;;;;;;22.41;37.59;96206.41;6187621;28;103316;-69
2022/10/05 07:42:31;;;;;;;8.00;6.60;;;;;;;22.42;37.14;96218.66;6187090;28;103344;-72
2022/10/05 07:45:41;;;;;;;7.20;6.50;;;;;;;22.41;37.71;96212.53;6176149;28;103088;-71
2022/10/05 07:48:56;;;;;;;6.60;6.00;;;;;;;22.42;37.82;96219.44;6187487;28;102915;-72
2022/10/05 07:52:05;;;;;;;6.40;5.80;;;;;;;22.46;37.73;96217.00;6187698;28;103215;-72
2022/10/05 07:55:18;;;;;;;6.57;5.97;;;;;;;22.47;38.29;96221.28;6186249;28;103606;-71
2022/10/05 07:58:28;;;;;;;6.77;6.00;;;;;;;22.49;38.03;96216.44;6181268;28;103053;-71
2022/10/05 08:01:35;;;;;;;6.70;6.10;;;;;;;22.50;38.40;96215.38;6187661;28;103098;-71
2022/10/05 08:04:45;;;;;;;5.87;5.37;;;;;;;22.52;38.12;96223.13;6186566;28;103011;-71
2022/10/05 08:07:51;;;;;;;6.47;5.97;;;;;;;22.53;38.53;96227.38;6176630;28;103165;-71
2022/10/05 08:11:02;;;;;;;6.57;5.97;;;;;;;22.54;38.44;96229.78;6186940;28;102999;-71
2022/10/05 08:14:14;;;;;;;6.90;6.20;;;;;;;22.56;38.09;96226.81;6186926;28;103232;-70
2022/10/05 08:17:24;;;;;;;6.30;5.70;;;;;;;22.58;38.53;96228.16;6188283;28;103970;-72
2022/10/05 08:20:35;;;;;;;7.03;5.90;;;;;;;22.62;38.04;96234.53;6176577;28;103772;-72
2022/10/05 08:23:46;;;;;;;7.57;6.87;;;;;;;22.63;38.01;96235.31;6187381;28;103335;-71
2022/10/05 08:26:58;;;;;;;23.30;21.10;;;;;;;22.61;37.82;96235.59;6186776;28;103163;-71
2022/10/05 08:30:05;;;;;;;529.43;474.37;;;;;;;22.59;37.64;96243.09;6176656;28;103244;-71
2022/10/05 08:33:16;;;;;;;1006.50;823.37;;;;;;;22.59;37.44;96250.28;6184545;28;102997;-72
2022/10/05 08:36:24;;;;;;;1069.40;853.43;;;;;;;22.56;37.58;96240.94;6184791;28;103025;-72
2022/10/05 08:39:30;;;;;;;1042.27;841.53;;;;;;;22.55;37.60;96239.38;6186190;28;104096;-72
2022/10/05 08:43:01;;;;;;;974.97;819.70;;;;;;;22.53;37.97;96236.19;6176282;28;103445;-72
2022/10/05 08:46:31;;;;;;;937.30;805.37;;;;;;;22.52;37.71;96234.59;6185736;28;103009;-71
2022/10/05 08:49:57;;;;;;;888.33;780.80;;;;;;;22.56;38.02;96226.81;6176983;28;105628;-72
2022/10/05 08:53:26;;;;;;;864.10;768.80;;;;;;;22.56;38.28;96224.16;6176184;28;104734;-72
2022/10/05 08:56:33;;;;;;;852.37;758.80;;;;;;;22.59;37.60;96223.63;6184743;28;102819;-72
2022/10/05 09:00:02;;;;;;;843.83;750.77;;;;;;;22.54;38.20;96219.09;6185931;28;103341;-71
2022/10/05 09:03:48;;;;;;;824.83;736.00;;;;;;;22.55;37.82;96226.03;6184188;28;103089;-71
2022/10/05 09:07:26;;;;;;;722.23;647.97;;;;;;;22.50;37.57;96223.38;6179719;28;103038;-71
2022/10/05 09:11:02;;;;;;;635.50;572.10;;;;;;;22.47;37.51;96223.94;6184556;28;103051;-71
2022/10/05 09:14:28;;;;;;;600.27;540.80;;;;;;;22.47;37.86;96225.81;6143226;28;103167;-72
2022/10/05 09:18:07;;;;;;;574.00;517.17;;;;;;;22.47;37.72;96228.47;6175580;28;104089;-71
2022/10/05 09:21:22;;;;;;;573.03;517.60;;;;;;;22.46;37.92;96232.22;6184444;28;103417;-72
2022/10/05 09:24:45;;;;;;;565.00;509.10;;;;;;;22.47;37.66;96229.28;6185751;28;103342;-72
2022/10/05 09:27:56;;;;;;;551.67;498.00;;;;;;;22.49;38.19;96227.13;6175435;28;103715;-72
2022/10/05 09:31:23;;;;;;;544.77;492.00;;;;;;;22.50;37.88;96227.91;6184937;28;102970;-71
2022/10/05 09:34:49;;;;;;;530.80;480.13;;;;;;;22.50;38.24;96225.25;6184710;28;103078;-71
2022/10/05 09:38:14;;;;;;;526.40;475.60;;;;;;;22.50;38.21;96223.38;6178587;28;103636;-70
2022/10/05 09:41:47;;;;;;;508.27;459.57;;;;;;;22.51;37.85;96227.63;6184606;28;103167;-72
2022/10/05 09:45:32;;;;;;;496.10;448.77;;;;;;;22.50;38.23;96223.38;6184717;28;103425;-70
2022/10/05 09:49:04;;;;;;;488.33;441.73;;;;;;;22.51;38.26;96230.31;6180957;28;103707;-69
2022/10/05 09:52:18;;;;;;;462.27;418.17;;;;;;;22.50;37.99;96230.59;6160328;28;103398;-71
2022/10/05 09:55:42;;;;;;;430.50;390.10;;;;;;;22.49;38.15;96226.31;6159527;28;104429;-71
2022/10/05 09:59:23;;;;;;;429.97;389.67;;;;;;;22.49;38.31;96221.78;6159803;28;104042;-71
2022/10/05 10:02:51;;;;;;;419.93;380.00;;;;;;;22.49;38.12;96221.00;6148883;28;103153;-71
2022/10/05 10:06:20;;;;;;;396.77;359.93;;;;;;;22.50;37.71;96220.72;6158978;28;103023;-71
2022/10/05 10:09:33;;;;;;;382.17;346.40;;;;;;;22.50;37.92;96222.56;6159129;28;103419;-71
2022/10/05 10:13:00;;;;;;;368.30;333.87;;;;;;;22.48;37.96;96225.53;6148616;28;103030;-72
2022/10/05 10:16:30;;;;;;;362.17;328.97;;;;;;;22.49;37.82;96221.00;6159058;28;103514;-71
2022/10/05 10:20:00;;;;;;;352.37;319.93;;;;;;;22.48;37.53;96214.06;6158859;28;102797;-71
2022/10/05 10:23:22;;;;;;;340.10;309.00;;;;;;;22.46;37.49;96226.88;6154072;28;103161;-71
2022/10/05 10:26:58;;;;;;;326.07;296.97;;;;;;;22.43;37.38;96225.56;6157820;28;103207;-71
2022/10/05 10:30:25;;;;;;;317.17;288.37;;;;;;;22.45;37.37;96227.97;6147826;28;103113;-71
2022/10/05 10:33:54;;;;;;;306.43;278.60;;;;;;;22.45;37.99;96223.44;6162291;28;104285;-70
2022/10/05 10:37:24;;;;;;;306.57;279.20;;;;;;;22.48;37.89;96219.41;6153606;28;103422;-69
2022/10/05 10:40:37;;;;;;;298.47;271.87;;;;;;;22.48;37.96;96211.41;6162238;28;103172;-70
2022/10/05 10:44:14;;;;;;;299.10;272.70;;;;;;;22.46;37.86;96195.69;6162389;28;103247;-70
2022/10/05 10:47:40;;;;;;;292.97;267.13;;;;;;;22.46;37.99;96195.69;6152258;28;103359;-70
2022/10/05 10:51:17;;;;;;;290.47;263.93;;;;;;;22.45;37.73;96187.97;6162272;28;103084;-70
2022/10/05 10:54:35;;;;;;;282.40;256.57;;;;;;;22.44;38.13;96186.38;6162189;28;103105;-70
2022/10/05 10:57:52;;;;;;;282.00;256.30;;;;;;;22.42;37.68;96186.66;6152145;28;103230;-70
2022/10/05 11:01:07;;;;;;;284.33;258.70;;;;;;;22.42;37.85;96189.31;6162245;28;103237;-69
2022/10/05 11:04:40;;;;;;;277.13;252.40;;;;;;;22.40;37.82;96180.81;6161872;28;103052;-69
2022/10/05 11:08:04;;;;;;;276.10;251.30;;;;;;;22.38;38.09;96173.09;6162160;28;103513;-70
2022/10/05 11:11:41;;;;;;;264.07;239.60;;;;;;;22.34;38.44;96160.56;6155471;28;103209;-69
2022/10/05 11:15:26;;;;;;;264.53;240.30;;;;;;;22.32;38.51;96154.72;6161962;28;103028;-70
2022/10/05 11:18:45;;;;;;;267.00;242.73;;;;;;;22.33;38.54;96161.63;6131996;28;103055;-71
2022/10/05 11:22:09;;;;;;;259.00;235.37;;;;;;;22.32;38.15;96154.72;6151245;28;103832;-70
2022/10/05 11:25:48;;;;;;;257.27;234.33;;;;;;;22.32;38.09;96150.19;6161105;28;103038;-69
2022/10/05 11:29:30;;;;;;;251.63;228.80;;;;;;;22.30;38.63;96151.53;6159088;28;103199;-70
2022/10/05 11:33:10;;;;;;;248.53;226.13;;;;;;;22.28;38.17;96151.03;6078096;28;104128;-70
2022/10/05 11:36:59;;;;;;;241.07;219.23;;;;;;;22.24;38.75;96145.47;6160880;28;103685;-70
2022/10/05 11:40:36;;;;;;;245.37;223.70;;;;;;;22.21;38.52;96142.56;6161629;28;107629;-69
2022/10/05 11:44:24;;;;;;;243.50;221.90;;;;;;;22.20;38.38;96140.97;6150040;28;103055;-70
2022/10/05 11:47:31;;;;;;;228.33;207.53;;;;;;;22.17;38.67;96141.50;6066043;28;103375;-68
2022/10/05 11:50:43;;;;;;;229.83;209.13;;;;;;;22.17;38.86;96130.84;6160945;28;104491;-70
2022/10/05 11:53:56;;;;;;;227.87;207.47;;;;;;;22.14;38.62;96139.41;6155941;28;103165;-70
2022/10/05 11:57:06;;;;;;;225.37;205.57;;;;;;;22.11;38.64;96127.44;6155952;28;103461;-70
2022/10/05 12:00:16;;;;;;;226.60;206.30;;;;;;;22.12;38.63;96134.34;6160664;28;103102;-69
2022/10/05 12:03:34;;;;;;;225.10;204.80;;;;;;;22.09;38.85;96122.38;6160799;28;102998;-70
2022/10/05 12:06:53;;;;;;;222.90;202.77;;;;;;;22.08;39.00;96120.00;6150470;28;103329;-70
2022/10/05 12:10:24;;;;;;;212.07;192.97;;;;;;;22.06;39.21;96122.94;6160160;28;103688;-70
2022/10/05 12:13:36;;;;;;;212.57;193.17;;;;;;;22.06;39.24;96111.50;6160980;28;103253;-70
2022/10/05 12:16:47;;;;;;;209.57;190.77;;;;;;;22.05;39.27;96116.03;6155206;28;103718;-69
2022/10/05 12:19:56;;;;;;;206.63;188.03;;;;;;;22.02;39.27;96113.91;6158185;28;106228;-70
2022/10/05 12:23:07;;;;;;;206.03;187.13;;;;;;;21.98;39.25;96115.53;6160154;28;103406;-70
2022/10/05 12:26:16;;;;;;;206.17;187.47;;;;;;;21.99;39.20;96117.13;6160325;28;103062;-69
2022/10/05 12:29:26;;;;;;;202.00;183.97;;;;;;;21.99;39.03;96119.78;6149931;28;105121;-70
2022/10/05 12:32:34;;;;;;;197.90;180.10;;;;;;;21.98;39.35;96126.19;6159856;28;103441;-70
2022/10/05 12:35:45;;;;;;;192.77;175.30;;;;;;;21.98;39.34;96118.19;6159665;28;103306;-70
2022/10/05 12:38:57;;;;;;;194.50;177.10;;;;;;;21.98;38.92;96120.84;6158249;28;103028;-69
2022/10/05 12:42:15;;;;;;;192.00;174.40;;;;;;;21.97;39.24;96124.59;6154531;28;103350;-69
2022/10/05 12:45:33;;;;;;;188.90;171.70;;;;;;;21.95;39.33;96126.75;6159847;28;103078;-70
2022/10/05 12:49:03;;;;;;;183.20;166.43;;;;;;;21.96;39.60;96123.00;6159859;28;102963;-71
2022/10/05 12:52:13;;;;;;;182.60;165.80;;;;;;;21.94;39.45;96127.81;6150140;28;104127;-71
2022/10/05 12:55:24;;;;;;;180.07;163.10;;;;;;;21.95;39.55;96116.09;6159785;28;103413;-70
2022/10/05 12:58:39;;;;;;;177.33;160.77;;;;;;;21.96;38.99;96116.88;6159905;28;102746;-71
2022/10/05 13:01:50;;;;;;;173.43;157.47;;;;;;;21.95;39.29;96120.63;6155260;28;103522;-70
2022/10/05 13:04:59;;;;;;;172.03;155.90;;;;;;;21.95;39.10;96117.97;6154572;28;103419;-70
2022/10/05 13:08:17;;;;;;;172.73;156.43;;;;;;;21.93;39.29;96123.56;6159784;28;103238;-70
2022/10/05 13:11:29;;;;;;;171.60;155.40;;;;;;;21.93;39.52;96123.56;6159711;28;103192;-71
2022/10/05 13:14:48;;;;;;;171.43;155.57;;;;;;;21.94;39.13;96121.69;6148630;28;103169;-70
2022/10/05 13:18:04;;;;;;;170.23;154.27;;;;;;;21.92;39.57;96113.97;6159610;28;103703;-70
2022/10/05 13:21:13;;;;;;;168.77;153.50;;;;;;;21.92;39.78;96115.84;6159439;28;103185;-71
2022/10/05 13:24:22;;;;;;;165.77;150.60;;;;;;;21.91;39.38;96108.94;6154577;28;103326;-71
2022/10/05 13:27:29;;;;;;;163.20;148.00;;;;;;;21.89;39.69;96106.56;6154145;28;103203;-70
2022/10/05 13:30:35;;;;;;;161.33;146.53;;;;;;;21.89;39.67;96097.75;6159329;28;102984;-71
2022/10/05 13:33:53;;;;;;;160.17;145.47;;;;;;;21.89;39.76;96103.09;6158805;28;104435;-71
2022/10/05 13:37:09;;;;;;;158.40;143.50;;;;;;;21.87;39.52;96091.91;6148449;28;103469;-71
2022/10/05 13:40:21;;;;;;;153.37;139.53;;;;;;;21.86;39.48;96090.34;6159113;28;102953;-70
2022/10/05 13:43:32;;;;;;;155.70;141.43;;;;;;;21.86;39.97;96088.47;6159642;28;103166;-70
2022/10/05 13:46:45;;;;;;;154.40;140.43;;;;;;;21.86;39.86;96087.66;6158457;28;103192;-71
2022/10/05 13:49:53;;;;;;;156.90;142.50;;;;;;;21.84;39.61;96073.81;6151228;28;105462;-70
2022/10/05 13:53:02;;;;;;;154.33;139.97;;;;;;;21.85;39.75;96078.09;6159262;28;104016;-71
2022/10/05 13:56:15;;;;;;;147.63;134.07;;;;;;;21.83;39.55;96078.34;6158837;28;103214;-71
2022/10/05 13:59:25;;;;;;;146.10;132.77;;;;;;;21.83;39.53;96074.88;6149228;28;103481;-71
2022/10/05 14:02:35;;;;;;;146.40;133.23;;;;;;;21.80;39.67;96070.88;6158585;28;103052;-71
2022/10/05 14:05:55;;;;;;;141.57;128.77;;;;;;;21.83;39.45;96078.34;6160882;28;103302;-71
2022/10/05 14:08:58;;;;;;;144.40;131.23;;;;;;;21.83;40.01;96075.66;6163380;28;103535;-69
2022/10/05 14:12:19;;;;;;;142.43;129.50;;;;;;;21.83;39.99;96070.34;6152372;28;103359;-70
2022/10/05 14:15:29;;;;;;;140.20;127.47;;;;;;;21.81;39.86;96070.59;6162829;28;103431;-70
2022/10/05 14:18:37;;;;;;;140.50;127.70;;;;;;;21.83;39.81;96072.22;6163087;28;103071;-70
2022/10/05 14:21:48;;;;;;;137.40;124.80;;;;;;;21.80;39.77;96078.88;6152650;28;103592;-70
2022/10/05 14:24:54;;;;;;;136.33;123.70;;;;;;;21.79;40.08;96078.06;6162829;28;103708;-70
2022/10/05 14:28:03;;;;;;;134.17;122.00;;;;;;;21.79;39.97;96082.59;6162454;28;103209;-70
2022/10/05 14:31:13;;;;;;;135.73;123.43;;;;;;;21.79;40.04;96082.59;6162881;28;102922;-70
2022/10/05 14:34:27;;;;;;;131.00;119.23;;;;;;;21.77;40.13;96077.56;6152151;28;103043;-70
2022/10/05 14:37:44;;;;;;;131.60;119.80;;;;;;;21.78;40.01;96081.00;6161968;28;103046;-71
2022/10/05 14:41:03;;;;;;;125.57;114.10;;;;;;;21.77;39.92;96066.09;6162796;28;103348;-69
2022/10/05 14:44:31;;;;;;;127.07;115.53;;;;;;;21.77;39.80;96066.09;6155437;28;105882;-69
2022/10/05 14:47:47;;;;;;;124.77;113.40;;;;;;;21.79;40.06;96069.28;6162284;28;102984;-70
2022/10/05 14:50:58;;;;;;;84.67;76.83;;;;;;;21.75;39.24;96068.25;6162130;28;103166;-72
2022/10/05 14:54:02;;;;;;;111.13;101.40;;;;;;;21.73;39.52;96076.53;6167577;28;102959;-72
2022/10/05 14:57:14;;;;;;;33.50;30.07;;;;;;;21.64;37.62;96072.06;6177135;28;103193;-72